Time;durP1;ratioP1;P1;durP2;ratioP2;P2;SDS_P1;SDS_P2;PMS_P1;PMS_P2;Temp;Humidity;BMP_temperature;BMP_pressure;BME280_temperature;BME280_humidity;BME280_pressure;Samples;Min_cycle;Max_cycle;Signal;HPM_P1;HPM_P2
2022/11/17 00:00:29;;;;;;;;;;;10.30;99.90;;;;;;5097942;27;20052;-31
2022/11/17 00:02:55;;;;;;;;;;;10.20;99.90;;;;;;5114122;27;19952;-31
2022/11/17 00:05:20;;;;;;;;;;;10.30;99.90;;;;;;5095246;28;20408;-32
2022/11/17 00:07:47;;;;;;;;;;;10.30;99.90;;;;;;5095341;28;19911;-31
2022/11/17 00:10:13;;;;;;;;;;;10.30;99.90;;;;;;5104360;28;20352;-31
2022/11/17 00:15:23;;;;;;;;;;;10.30;99.90;;;;;;5097833;28;19915;-34
2022/11/17 00:21:17;;;;;;;;;;;10.30;99.90;;;;;;5094625;28;19917;-31
2022/11/17 00:26:25;;;;;;;;;;;10.30;99.90;;;;;;5079096;28;20363;-37
2022/11/17 00:28:54;;;;;;;;;;;10.40;99.90;;;;;;5087051;28;19908;-31
2022/11/17 00:34:05;;;;;;;;;;;10.30;99.90;;;;;;5116506;27;19910;-34
2022/11/17 00:36:31;;;;;;;;;;;10.40;99.90;;;;;;5116012;27;20359;-37
2022/11/17 00:38:57;;;;;;;;;;;10.40;99.90;;;;;;5106567;27;20335;-34
2022/11/17 00:41:22;;;;;;;;;;;10.30;99.90;;;;;;5100905;28;19951;-33
2022/11/17 00:43:48;;;;;;;;;;;10.40;99.90;;;;;;5098543;28;19960;-39
2022/11/17 00:46:13;;;;;;;;;;;10.40;99.90;;;;;;5102725;28;19907;-38
2022/11/17 00:48:39;;;;;;;;;;;10.40;99.90;;;;;;5111578;28;20386;-37
2022/11/17 00:51:04;;;;;;;;;;;10.40;99.90;;;;;;5106436;28;19916;-32
2022/11/17 00:53:30;;;;;;;;;;;10.40;99.90;;;;;;5101840;28;19914;-39
2022/11/17 00:55:55;;;;;;;;;;;10.40;99.90;;;;;;5107586;28;20360;-31
2022/11/17 00:58:21;;;;;;;;;;;10.40;99.90;;;;;;5091445;28;19908;-37
2022/11/17 01:00:49;;;;;;;;;;;10.40;99.90;;;;;;5101115;28;20280;-42
2022/11/17 01:03:14;;;;;;;;;;;10.40;99.90;;;;;;5102957;28;19908;-35
2022/11/17 01:05:40;;;;;;;;;;;10.40;99.90;;;;;;5099700;28;20372;-33
2022/11/17 01:08:05;;;;;;;;;;;10.40;99.90;;;;;;5093488;28;19961;-40
2022/11/17 01:10:33;;;;;;;;;;;10.40;99.90;;;;;;5093748;28;20002;-32
2022/11/17 01:12:58;;;;;;;;;;;10.40;99.90;;;;;;5094647;28;19966;-38
2022/11/17 01:15:24;;;;;;;;;;;10.40;99.90;;;;;;5094888;28;19943;-38
2022/11/17 01:17:49;;;;;;;;;;;10.40;99.90;;;;;;5103613;28;19908;-32
2022/11/17 01:20:15;;;;;;;;;;;10.40;99.90;;;;;;5101955;28;19912;-32
2022/11/17 01:22:40;;;;;;;;;;;10.40;99.90;;;;;;5112913;28;19952;-33
2022/11/17 01:25:06;;;;;;;;;;;10.40;99.90;;;;;;5096280;28;19908;-33
2022/11/17 01:27:31;;;;;;;;;;;10.40;99.90;;;;;;5097068;28;19916;-35
2022/11/17 01:29:57;;;;;;;;;;;10.50;99.90;;;;;;5096892;28;20011;-32
2022/11/17 01:32:22;;;;;;;;;;;10.50;99.90;;;;;;5100838;28;20383;-31
2022/11/17 01:34:48;;;;;;;;;;;10.50;99.90;;;;;;5111153;28;20440;-35
2022/11/17 01:37:19;;;;;;;;;;;10.50;99.90;;;;;;5100364;28;19951;-38
2022/11/17 01:39:45;;;;;;;;;;;10.50;99.90;;;;;;5106181;28;19908;-33
2022/11/17 01:42:12;;;;;;;;;;;10.60;99.90;;;;;;5094263;28;20280;-56
2022/11/17 01:44:56;;;;;;;;;;;10.50;99.90;;;;;;5107597;28;20363;-38
2022/11/17 01:47:22;;;;;;;;;;;10.50;99.90;;;;;;5093711;28;21271;-43
2022/11/17 01:49:48;;;;;;;;;;;10.60;99.90;;;;;;5094374;28;20045;-36
2022/11/17 01:52:14;;;;;;;;;;;10.60;99.90;;;;;;5099869;28;20412;-38
2022/11/17 01:54:41;;;;;;;;;;;10.70;99.90;;;;;;5100488;28;19908;-37
2022/11/17 01:57:11;;;;;;;;;;;10.70;99.90;;;;;;5092403;28;19912;-37
2022/11/17 01:59:39;;;;;;;;;;;10.70;99.90;;;;;;5112024;28;19914;-37
2022/11/17 02:02:05;;;;;;;;;;;10.70;99.90;;;;;;5107366;28;19915;-36
2022/11/17 02:04:32;;;;;;;;;;;10.70;99.90;;;;;;5110064;28;19943;-39
2022/11/17 02:07:07;;;;;;;;;;;10.70;99.90;;;;;;5113303;28;19904;-38
2022/11/17 02:09:33;;;;;;;;;;;10.70;99.90;;;;;;5101533;28;19919;-38
2022/11/17 02:11:59;;;;;;;;;;;10.70;99.90;;;;;;5110698;28;20429;-36
2022/11/17 02:14:25;;;;;;;;;;;10.70;99.90;;;;;;5109680;28;19943;-39
2022/11/17 02:16:50;;;;;;;;;;;10.80;99.90;;;;;;5103402;28;20351;-39
2022/11/17 02:19:16;;;;;;;;;;;10.70;99.90;;;;;;5105919;28;19908;-44
2022/11/17 02:21:42;;;;;;;;;;;10.70;99.90;;;;;;5100789;28;19908;-39
2022/11/17 02:24:07;;;;;;;;;;;10.70;99.90;;;;;;5106627;28;19915;-41
2022/11/17 02:26:32;;;;;;;;;;;10.70;99.90;;;;;;5098561;28;20347;-37
2022/11/17 02:29:10;;;;;;;;;;;10.80;99.90;;;;;;5106028;28;19912;-32
2022/11/17 02:31:47;;;;;;;;;;;10.70;99.90;;;;;;5103942;28;19915;-31
2022/11/17 02:34:15;;;;;;;;;;;10.70;99.90;;;;;;5093869;28;19925;-32
2022/11/17 02:36:44;;;;;;;;;;;10.70;99.90;;;;;;5112375;28;20352;-30
2022/11/17 02:39:12;;;;;;;;;;;10.70;99.90;;;;;;5099679;28;19908;-30
2022/11/17 02:41:55;;;;;;;;;;;10.80;99.90;;;;;;5115382;28;20351;-36
2022/11/17 02:44:20;;;;;;;;;;;10.80;99.90;;;;;;5106783;28;19907;-39
2022/11/17 02:46:49;;;;;;;;;;;10.80;99.90;;;;;;5116638;28;20343;-38
2022/11/17 02:49:19;;;;;;;;;;;10.90;99.90;;;;;;5107080;28;20015;-38
2022/11/17 02:51:47;;;;;;;;;;;10.80;99.90;;;;;;5109508;28;19960;-56
2022/11/17 02:54:12;;;;;;;;;;;10.80;99.90;;;;;;5095993;28;19908;-38
2022/11/17 02:56:42;;;;;;;;;;;10.80;99.90;;;;;;5096362;28;19907;-38
2022/11/17 02:59:07;;;;;;;;;;;10.80;99.90;;;;;;5096040;28;19999;-39
2022/11/17 03:01:42;;;;;;;;;;;10.80;99.90;;;;;;5095553;28;20000;-39
2022/11/17 03:04:18;;;;;;;;;;;10.80;99.90;;;;;;5102916;28;19908;-38
2022/11/17 03:06:46;;;;;;;;;;;10.90;99.90;;;;;;5104645;28;19907;-37
2022/11/17 03:09:17;;;;;;;;;;;10.90;99.90;;;;;;5100989;28;20245;-38
2022/11/17 03:11:46;;;;;;;;;;;10.90;99.90;;;;;;5101510;28;20271;-37
2022/11/17 03:14:41;;;;;;;;;;;10.90;99.90;;;;;;5110460;28;19907;-38
2022/11/17 03:17:14;;;;;;;;;;;10.90;99.90;;;;;;5084813;28;20168;-31
2022/11/17 03:19:48;;;;;;;;;;;11.00;99.90;;;;;;5104411;28;20364;-30
2022/11/17 03:22:17;;;;;;;;;;;11.00;99.90;;;;;;5113409;28;19907;-35
2022/11/17 03:24:54;;;;;;;;;;;11.10;99.90;;;;;;5097874;28;20321;-33
2022/11/17 03:27:24;;;;;;;;;;;11.10;99.90;;;;;;5103852;28;19908;-31
2022/11/17 03:29:51;;;;;;;;;;;11.10;99.90;;;;;;5094761;28;19919;-32
2022/11/17 03:32:17;;;;;;;;;;;11.20;99.90;;;;;;5101595;27;19995;-29
2022/11/17 03:34:46;;;;;;;;;;;11.20;99.90;;;;;;5107301;28;19910;-31
2022/11/17 03:37:14;;;;;;;;;;;11.20;99.90;;;;;;5112026;28;20338;-31
2022/11/17 03:39:44;;;;;;;;;;;11.20;99.90;;;;;;5107232;28;19908;-32
2022/11/17 03:42:29;;;;;;;;;;;11.20;99.90;;;;;;5094353;28;19970;-34
2022/11/17 03:45:03;;;;;;;;;;;11.30;99.90;;;;;;5101076;28;20352;-33
2022/11/17 03:47:30;;;;;;;;;;;11.30;99.90;;;;;;5111221;28;20006;-34
2022/11/17 03:49:56;;;;;;;;;;;11.30;99.90;;;;;;5108271;28;19962;-39
2022/11/17 03:52:23;;;;;;;;;;;11.30;99.90;;;;;;5094956;28;19908;-32
2022/11/17 03:54:50;;;;;;;;;;;11.30;99.90;;;;;;5097934;28;20359;-34
2022/11/17 03:57:23;;;;;;;;;;;11.40;99.90;;;;;;5106512;28;20426;-31
2022/11/17 03:59:52;;;;;;;;;;;11.40;99.90;;;;;;5098538;27;20376;-33
2022/11/17 04:02:19;;;;;;;;;;;11.40;99.90;;;;;;5110946;28;19914;-31
2022/11/17 04:07:28;;;;;;;;;;;11.40;99.90;;;;;;5098303;28;19915;-31
2022/11/17 04:09:54;;;;;;;;;;;11.40;99.90;;;;;;5113038;28;19916;-34
2022/11/17 04:17:48;;;;;;;;;;;11.40;99.90;;;;;;5099351;28;19914;-33
2022/11/17 04:20:14;;;;;;;;;;;11.40;99.90;;;;;;5112779;28;19959;-33
2022/11/17 04:22:39;;;;;;;;;;;11.40;99.90;;;;;;5106577;28;19947;-34
2022/11/17 04:25:05;;;;;;;;;;;11.40;99.90;;;;;;5100440;28;19912;-32
2022/11/17 04:30:14;;;;;;;;;;;11.30;99.90;;;;;;5095062;28;19954;-34
2022/11/17 04:32:40;;;;;;;;;;;11.30;99.90;;;;;;5099173;28;19939;-33
2022/11/17 04:35:06;;;;;;;;;;;11.30;99.90;;;;;;5110750;28;19945;-32
2022/11/17 04:37:31;;;;;;;;;;;11.30;99.90;;;;;;5103119;28;19919;-35
2022/11/17 04:39:57;;;;;;;;;;;11.30;99.90;;;;;;5106957;28;19907;-49
2022/11/17 04:42:22;;;;;;;;;;;11.30;99.90;;;;;;5112440;28;19908;-41
2022/11/17 04:44:48;;;;;;;;;;;11.30;99.90;;;;;;5111703;28;19915;-42
2022/11/17 04:47:13;;;;;;;;;;;11.30;99.90;;;;;;5099927;28;20379;-42
2022/11/17 04:49:39;;;;;;;;;;;11.30;99.90;;;;;;5111553;28;19922;-33
2022/11/17 04:52:04;;;;;;;;;;;11.30;99.90;;;;;;5111934;28;19956;-30
2022/11/17 04:54:30;;;;;;;;;;;11.10;99.90;;;;;;5112587;28;20412;-32
2022/11/17 04:56:55;;;;;;;;;;;11.00;99.90;;;;;;5099174;28;19953;-30
2022/11/17 04:59:21;;;;;;;;;;;11.00;99.90;;;;;;5097151;28;20390;-32
2022/11/17 05:01:47;;;;;;;;;;;10.90;99.90;;;;;;5095852;28;19908;-33
2022/11/17 05:04:14;;;;;;;;;;;10.90;99.90;;;;;;5105688;28;19947;-34
2022/11/17 05:06:41;;;;;;;;;;;10.80;99.90;;;;;;5114064;28;19907;-34
2022/11/17 05:09:08;;;;;;;;;;;10.80;99.90;;;;;;5098833;28;19912;-32
2022/11/17 05:14:18;;;;;;;;;;;10.80;99.90;;;;;;5097627;28;20413;-37
2022/11/17 05:19:28;;;;;;;;;;;10.80;99.90;;;;;;5097747;28;19954;-36
2022/11/17 05:21:54;;;;;;;;;;;10.70;99.90;;;;;;5102601;28;20378;-38
2022/11/17 05:24:20;;;;;;;;;;;10.70;99.90;;;;;;5102682;28;19907;-36
2022/11/17 05:26:46;;;;;;;;;;;10.70;99.90;;;;;;5098516;28;19908;-38
2022/11/17 05:29:14;;;;;;;;;;;10.70;99.90;;;;;;5112825;28;19912;-37
2022/11/17 05:31:40;;;;;;;;;;;10.70;99.90;;;;;;5108265;28;19915;-30
2022/11/17 05:34:06;;;;;;;;;;;10.80;99.90;;;;;;5103987;28;19907;-41
2022/11/17 05:36:32;;;;;;;;;;;10.80;99.90;;;;;;5110239;28;19919;-29
2022/11/17 05:38:57;;;;;;;;;;;10.70;99.90;;;;;;5113074;28;19915;-31
2022/11/17 05:41:23;;;;;;;;;;;10.70;99.90;;;;;;5113600;28;19998;-49
2022/11/17 05:43:49;;;;;;;;;;;10.80;99.90;;;;;;5095662;28;19912;-38
2022/11/17 05:46:15;;;;;;;;;;;10.80;99.90;;;;;;5092240;28;20371;-34
2022/11/17 05:48:41;;;;;;;;;;;10.80;99.90;;;;;;5094939;28;19908;-38
2022/11/17 05:51:06;;;;;;;;;;;10.80;99.90;;;;;;5094637;28;20010;-38
2022/11/17 05:53:32;;;;;;;;;;;10.90;99.90;;;;;;5091893;28;19996;-39
2022/11/17 05:56:04;;;;;;;;;;;10.90;99.90;;;;;;5108061;28;19921;-39
2022/11/17 05:58:32;;;;;;;;;;;10.80;99.90;;;;;;5106314;28;19994;-40
2022/11/17 06:00:58;;;;;;;;;;;10.80;99.90;;;;;;5106998;28;19915;-38
2022/11/17 06:03:25;;;;;;;;;;;10.80;99.90;;;;;;5099209;28;20427;-37
2022/11/17 06:05:51;;;;;;;;;;;10.80;99.90;;;;;;5091384;28;20378;-36
2022/11/17 06:08:17;;;;;;;;;;;10.80;99.90;;;;;;5102214;28;19908;-36
2022/11/17 06:10:42;;;;;;;;;;;10.90;99.90;;;;;;5103291;28;19911;-37
2022/11/17 06:13:08;;;;;;;;;;;10.90;99.90;;;;;;5111151;28;19955;-37
2022/11/17 06:15:33;;;;;;;;;;;11.00;99.90;;;;;;5114625;28;20407;-37
2022/11/17 06:18:02;;;;;;;;;;;10.90;99.90;;;;;;5103959;28;19947;-38
2022/11/17 06:20:30;;;;;;;;;;;10.90;99.90;;;;;;5096721;28;19908;-56
2022/11/17 06:22:58;;;;;;;;;;;11.00;99.90;;;;;;5097127;28;19908;-37
2022/11/17 06:25:24;;;;;;;;;;;10.90;99.90;;;;;;5104020;28;20488;-37
2022/11/17 06:27:50;;;;;;;;;;;11.00;99.90;;;;;;5109294;28;19995;-37
2022/11/17 06:30:16;;;;;;;;;;;11.00;99.90;;;;;;5116173;28;19912;-37
2022/11/17 06:32:42;;;;;;;;;;;11.10;99.90;;;;;;5113233;28;19904;-37
2022/11/17 06:35:08;;;;;;;;;;;11.10;99.90;;;;;;5114863;28;19908;-40
2022/11/17 06:37:34;;;;;;;;;;;11.10;99.90;;;;;;5113378;28;20479;-37
2022/11/17 06:39:59;;;;;;;;;;;11.10;99.90;;;;;;5102677;28;20007;-34
2022/11/17 06:45:10;;;;;;;;;;;11.10;99.90;;;;;;5125159;28;19963;-45
2022/11/17 06:47:35;;;;;;;;;;;11.10;99.90;;;;;;5108072;28;19933;-36
2022/11/17 06:50:01;;;;;;;;;;;11.10;99.90;;;;;;5102734;28;19916;-36
2022/11/17 06:52:26;;;;;;;;;;;11.10;99.90;;;;;;5096678;28;19908;-38
2022/11/17 06:54:52;;;;;;;;;;;11.10;99.90;;;;;;5107605;28;19907;-39
2022/11/17 06:57:17;;;;;;;;;;;11.10;99.90;;;;;;5094901;28;20489;-39
2022/11/17 06:59:43;;;;;;;;;;;11.10;99.90;;;;;;5094916;28;19908;-37
2022/11/17 07:02:08;;;;;;;;;;;11.10;99.90;;;;;;5099233;28;20356;-37
2022/11/17 07:04:36;;;;;;;;;;;11.10;99.90;;;;;;5113711;28;20144;-43
2022/11/17 07:07:02;;;;;;;;;;;11.10;99.90;;;;;;5111909;28;20398;-47
2022/11/17 07:09:28;;;;;;;;;;;11.10;99.90;;;;;;5104388;28;20315;-37
2022/11/17 07:11:53;;;;;;;;;;;11.00;99.90;;;;;;5099637;28;20006;-38
2022/11/17 07:14:19;;;;;;;;;;;11.00;99.90;;;;;;5095316;28;19908;-37
2022/11/17 07:16:44;;;;;;;;;;;11.00;99.90;;;;;;5094797;28;20015;-37
2022/11/17 07:19:10;;;;;;;;;;;11.00;99.90;;;;;;5111093;28;20270;-36
2022/11/17 07:21:36;;;;;;;;;;;10.90;99.90;;;;;;5104925;28;20021;-36
2022/11/17 07:24:02;;;;;;;;;;;11.00;99.90;;;;;;5094095;28;19915;-37
2022/11/17 07:26:28;;;;;;;;;;;10.90;99.90;;;;;;5100567;28;19908;-37
2022/11/17 07:28:53;;;;;;;;;;;10.90;99.90;;;;;;5095765;28;19914;-41
2022/11/17 07:31:19;;;;;;;;;;;10.90;99.90;;;;;;5103298;28;19950;-38
2022/11/17 07:55:07;;;;;;;;;;;10.60;99.90;;;;;;5092671;28;19919;-37
2022/11/17 07:57:32;;;;;;;;;;;10.60;99.90;;;;;;5102033;28;19966;-37
2022/11/17 07:59:58;;;;;;;;;;;10.60;99.90;;;;;;5099422;28;20304;-33
2022/11/17 08:02:23;;;;;;;;;;;10.60;99.90;;;;;;5109550;28;19952;-29
2022/11/17 08:04:49;;;;;;;;;;;10.60;99.90;;;;;;5105188;28;20293;-29
2022/11/17 08:07:14;;;;;;;;;;;10.60;99.90;;;;;;5104377;28;20071;-33
2022/11/17 08:09:40;;;;;;;;;;;10.60;99.90;;;;;;5105415;28;19923;-37
2022/11/17 08:12:06;;;;;;;;;;;10.50;99.90;;;;;;5087574;28;20029;-38
2022/11/17 08:14:31;;;;;;;;;;;10.50;99.90;;;;;;5100342;28;19915;-32
2022/11/17 08:16:57;;;;;;;;;;;10.60;99.90;;;;;;5102986;28;19914;-30
2022/11/17 08:19:22;;;;;;;;;;;10.60;99.90;;;;;;5095749;28;19908;-30
2022/11/17 08:21:49;;;;;;;;;;;10.50;99.90;;;;;;5099234;28;19994;-32
2022/11/17 08:24:15;;;;;;;;;;;10.50;99.90;;;;;;5113963;28;20363;-32
2022/11/17 08:26:40;;;;;;;;;;;10.50;99.90;;;;;;5115809;27;20001;-28
2022/11/17 08:29:06;;;;;;;;;;;10.50;99.90;;;;;;5102046;28;19915;-29
2022/11/17 08:31:31;;;;;;;;;;;10.50;99.90;;;;;;5113270;28;19908;-29
2022/11/17 08:33:57;;;;;;;;;;;10.50;99.90;;;;;;5108224;28;19907;-30
2022/11/17 08:36:22;;;;;;;;;;;10.60;99.90;;;;;;5113999;28;19949;-28
2022/11/17 08:38:48;;;;;;;;;;;10.60;99.90;;;;;;5100795;28;20322;-29
2022/11/17 08:41:13;;;;;;;;;;;10.50;99.90;;;;;;5113481;28;19904;-29
2022/11/17 08:43:39;;;;;;;;;;;10.50;99.90;;;;;;5107387;28;20275;-28
2022/11/17 08:46:04;;;;;;;;;;;10.60;99.90;;;;;;5113420;28;19911;-31
2022/11/17 08:48:30;;;;;;;;;;;10.50;99.90;;;;;;5112964;28;19904;-32
2022/11/17 08:50:56;;;;;;;;;;;10.50;99.90;;;;;;5101882;28;20165;-33
2022/11/17 08:53:22;;;;;;;;;;;10.50;99.90;;;;;;5101933;28;20363;-29
2022/11/17 08:55:48;;;;;;;;;;;10.40;99.90;;;;;;5097428;28;19919;-31
2022/11/17 08:58:14;;;;;;;;;;;10.50;99.90;;;;;;5110518;28;19915;-30
2022/11/17 09:00:40;;;;;;;;;;;10.50;99.90;;;;;;5108172;27;19907;-29
2022/11/17 09:03:09;;;;;;;;;;;10.60;99.90;;;;;;5098228;28;19908;-32
2022/11/17 09:05:38;;;;;;;;;;;10.50;99.90;;;;;;5097008;28;20002;-32
2022/11/17 09:08:04;;;;;;;;;;;10.50;99.90;;;;;;5096492;28;19912;-34
2022/11/17 09:10:29;;;;;;;;;;;10.40;99.90;;;;;;5102236;28;20281;-34
2022/11/17 09:12:55;;;;;;;;;;;10.50;99.90;;;;;;5105328;28;20393;-34
2022/11/17 09:15:21;;;;;;;;;;;10.50;99.90;;;;;;5106505;28;19908;-29
2022/11/17 09:17:47;;;;;;;;;;;10.50;99.90;;;;;;5092776;28;19908;-28
2022/11/17 09:20:13;;;;;;;;;;;10.50;99.90;;;;;;5093481;28;20444;-28
2022/11/17 09:22:38;;;;;;;;;;;10.40;99.90;;;;;;5093389;28;20360;-30
2022/11/17 09:25:04;;;;;;;;;;;10.50;99.90;;;;;;5093288;28;19930;-29
2022/11/17 09:27:29;;;;;;;;;;;10.50;99.90;;;;;;5093170;28;20364;-29
2022/11/17 09:29:55;;;;;;;;;;;10.50;99.90;;;;;;5093265;28;19912;-29
2022/11/17 09:32:20;;;;;;;;;;;10.50;99.90;;;;;;5093561;28;19908;-29
2022/11/17 09:34:46;;;;;;;;;;;10.50;99.90;;;;;;5093299;28;19915;-33
2022/11/17 09:37:11;;;;;;;;;;;10.40;99.90;;;;;;5093489;28;19908;-45
2022/11/17 09:39:37;;;;;;;;;;;10.40;99.90;;;;;;5093216;28;19994;-32
2022/11/17 09:42:02;;;;;;;;;;;10.40;99.90;;;;;;5093203;28;20288;-37
2022/11/17 09:44:38;;;;;;;;;;;10.50;99.90;;;;;;5093192;28;19957;-30
2022/11/17 09:47:22;;;;;;;;;;;10.50;99.90;;;;;;5092215;28;19908;-29
2022/11/17 09:49:57;;;;;;;;;;;10.50;99.90;;;;;;5096874;28;20386;-32
2022/11/17 09:52:28;;;;;;;;;;;10.40;99.90;;;;;;5097237;28;19908;-30
2022/11/17 09:57:40;;;;;;;;;;;10.40;99.90;;;;;;5097137;28;20008;-29
2022/11/17 10:00:12;;;;;;;;;;;10.40;99.90;;;;;;5097170;28;19911;-31
2022/11/17 10:02:37;;;;;;;;;;;10.50;99.90;;;;;;5097383;28;20377;-31
2022/11/17 10:05:03;;;;;;;;;;;10.50;99.90;;;;;;5096954;28;19907;-29
2022/11/17 10:07:30;;;;;;;;;;;10.60;99.90;;;;;;5096932;28;19912;-29
2022/11/17 10:09:57;;;;;;;;;;;10.60;99.90;;;;;;5097071;28;19966;-32
2022/11/17 10:12:25;;;;;;;;;;;10.60;99.90;;;;;;5096884;28;19918;-29
2022/11/17 10:14:51;;;;;;;;;;;10.60;99.90;;;;;;5096839;28;20304;-28
2022/11/17 10:17:16;;;;;;;;;;;10.60;99.90;;;;;;5096825;28;19915;-29
2022/11/17 10:19:44;;;;;;;;;;;10.60;99.90;;;;;;5096736;28;20336;-32
2022/11/17 10:22:09;;;;;;;;;;;10.60;99.90;;;;;;5096678;28;19915;-30
2022/11/17 10:24:37;;;;;;;;;;;10.70;99.90;;;;;;5096890;28;19911;-28
2022/11/17 10:27:04;;;;;;;;;;;10.60;99.90;;;;;;5096856;28;20253;-29
2022/11/17 10:29:30;;;;;;;;;;;10.60;99.90;;;;;;5096742;28;20351;-29
2022/11/17 10:31:56;;;;;;;;;;;10.60;99.90;;;;;;5096750;28;19908;-29
2022/11/17 10:34:35;;;;;;;;;;;10.60;99.90;;;;;;5096346;28;20365;-32
2022/11/17 10:37:22;;;;;;;;;;;10.50;99.90;;;;;;5096710;28;19915;-30
2022/11/17 10:39:47;;;;;;;;;;;10.60;99.90;;;;;;5096395;28;20001;-32
2022/11/17 10:42:26;;;;;;;;;;;10.60;99.90;;;;;;5096288;28;19912;-31
2022/11/17 10:44:54;;;;;;;;;;;10.50;99.90;;;;;;5096563;28;19961;-29
2022/11/17 10:47:30;;;;;;;;;;;10.50;99.90;;;;;;5096174;28;19915;-29
2022/11/17 10:50:05;;;;;;;;;;;10.50;99.90;;;;;;5096043;28;19950;-30
2022/11/17 10:52:30;;;;;;;;;;;10.50;99.90;;;;;;5096138;28;19914;-31
2022/11/17 10:55:15;;;;;;;;;;;10.50;99.90;;;;;;5096111;28;19944;-28
2022/11/17 10:57:42;;;;;;;;;;;10.50;99.90;;;;;;5095826;28;20260;-29
2022/11/17 11:00:21;;;;;;;;;;;10.50;99.90;;;;;;5095888;28;19910;-29
2022/11/17 11:02:46;;;;;;;;;;;10.50;99.90;;;;;;5095954;28;20360;-28
2022/11/17 11:05:14;;;;;;;;;;;10.40;99.90;;;;;;5095844;28;19904;-30
2022/11/17 11:07:39;;;;;;;;;;;10.30;99.90;;;;;;5095814;28;19995;-29
2022/11/17 11:10:09;;;;;;;;;;;10.30;99.90;;;;;;5095986;28;20007;-37
2022/11/17 11:12:37;;;;;;;;;;;10.30;99.90;;;;;;5095763;28;20148;-30
2022/11/17 11:15:04;;;;;;;;;;;10.30;99.90;;;;;;5095683;28;20323;-29
2022/11/17 11:17:29;;;;;;;;;;;10.20;99.90;;;;;;5095862;28;20276;-31
2022/11/17 11:19:55;;;;;;;;;;;10.30;99.90;;;;;;5095615;28;19904;-29
2022/11/17 11:22:24;;;;;;;;;;;10.30;99.90;;;;;;5095554;28;20412;-30
2022/11/17 11:25:01;;;;;;;;;;;10.30;99.90;;;;;;5095493;28;19904;-28
2022/11/17 11:27:26;;;;;;;;;;;10.30;99.90;;;;;;5095470;28;20257;-29
2022/11/17 11:30:00;;;;;;;;;;;10.30;99.90;;;;;;5095312;28;19917;-29
2022/11/17 11:32:43;;;;;;;;;;;10.30;99.90;;;;;;5095385;28;19904;-29
2022/11/17 11:35:21;;;;;;;;;;;10.40;99.90;;;;;;5095345;28;20375;-30
2022/11/17 11:37:57;;;;;;;;;;;10.30;99.90;;;;;;5095279;28;19904;-29
2022/11/17 11:40:23;;;;;;;;;;;10.30;99.90;;;;;;5095330;28;20348;-31
2022/11/17 11:42:55;;;;;;;;;;;10.40;99.90;;;;;;5095173;28;19904;-31
2022/11/17 11:45:39;;;;;;;;;;;10.30;99.90;;;;;;5095175;28;19904;-31
2022/11/17 11:48:07;;;;;;;;;;;10.30;99.90;;;;;;5095079;28;19908;-29
2022/11/17 11:50:37;;;;;;;;;;;10.30;99.90;;;;;;5095001;28;19912;-31
2022/11/17 11:53:04;;;;;;;;;;;10.30;99.90;;;;;;5095196;28;19929;-29
2022/11/17 11:55:32;;;;;;;;;;;10.40;99.90;;;;;;5094867;28;19904;-30
2022/11/17 11:58:07;;;;;;;;;;;10.30;99.90;;;;;;5094673;28;19911;-31
2022/11/17 12:00:32;;;;;;;;;;;10.30;99.90;;;;;;5094769;28;20040;-29
2022/11/17 12:03:12;;;;;;;;;;;10.30;99.90;;;;;;5094767;28;19961;-29
2022/11/17 12:05:56;;;;;;;;;;;10.30;99.90;;;;;;5101869;28;20375;-32
2022/11/17 12:08:27;;;;;;;;;;;10.30;99.90;;;;;;5097314;28;20007;-29
2022/11/17 12:10:57;;;;;;;;;;;10.40;99.90;;;;;;5093938;28;19912;-30
2022/11/17 12:13:23;;;;;;;;;;;10.30;99.90;;;;;;5094589;28;20408;-32
2022/11/17 12:15:49;;;;;;;;;;;10.30;99.90;;;;;;5094498;28;20379;-31
2022/11/17 12:18:18;;;;;;;;;;;10.30;99.90;;;;;;5094474;28;20323;-30
2022/11/17 12:20:46;;;;;;;;;;;10.30;99.90;;;;;;5094693;28;20368;-33
2022/11/17 12:23:24;;;;;;;;;;;10.30;99.90;;;;;;5094615;28;20048;-30
2022/11/17 12:25:52;;;;;;;;;;;10.30;99.90;;;;;;5094518;28;20371;-30
2022/11/17 12:28:34;;;;;;;;;;;10.30;99.90;;;;;;5094541;28;19904;-29
2022/11/17 12:30:59;;;;;;;;;;;10.30;99.90;;;;;;5094489;28;20267;-31
2022/11/17 12:33:54;;;;;;;;;;;10.30;99.90;;;;;;5094178;28;19904;-32
2022/11/17 12:36:23;;;;;;;;;;;10.30;99.90;;;;;;5089145;28;20011;-30
2022/11/17 12:38:49;;;;;;;;;;;10.30;99.90;;;;;;5094131;28;19911;-31
2022/11/17 12:41:35;;;;;;;;;;;10.40;99.90;;;;;;5094004;28;19908;-33
2022/11/17 12:44:19;;;;;;;;;;;10.30;99.90;;;;;;5093993;28;19936;-30
2022/11/17 12:46:46;;;;;;;;;;;10.30;99.90;;;;;;5093940;28;19914;-32
2022/11/17 12:49:19;;;;;;;;;;;10.30;99.90;;;;;;5094143;28;20313;-31
2022/11/17 12:51:52;;;;;;;;;;;10.30;99.90;;;;;;5092635;28;20364;-35
2022/11/17 12:54:24;;;;;;;;;;;10.30;99.90;;;;;;5093911;28;19904;-31
2022/11/17 12:57:10;;;;;;;;;;;10.30;99.90;;;;;;5093662;28;19912;-32
2022/11/17 13:00:01;;;;;;;;;;;10.30;99.90;;;;;;5092222;28;19990;-33
2022/11/17 13:02:45;;;;;;;;;;;10.30;99.90;;;;;;5094029;28;19904;-32
2022/11/17 13:05:18;;;;;;;;;;;10.40;99.90;;;;;;5093671;28;20364;-30
2022/11/17 13:07:43;;;;;;;;;;;10.30;99.90;;;;;;5093659;28;20307;-31
2022/11/17 13:10:22;;;;;;;;;;;10.30;99.90;;;;;;5093537;28;19919;-32
2022/11/17 13:12:47;;;;;;;;;;;10.40;99.90;;;;;;5093555;28;20445;-33
2022/11/17 13:15:19;;;;;;;;;;;10.40;99.90;;;;;;5093500;28;20020;-32
2022/11/17 13:17:45;;;;;;;;;;;10.40;99.90;;;;;;5093538;28;20400;-32
2022/11/17 13:20:37;;;;;;;;;;;10.30;99.90;;;;;;5093457;28;19990;-31
2022/11/17 13:23:17;;;;;;;;;;;10.30;99.90;;;;;;5091388;28;20367;-28
2022/11/17 13:25:42;;;;;;;;;;;10.30;99.90;;;;;;5093492;28;19911;-28
2022/11/17 13:28:27;;;;;;;;;;;10.30;99.90;;;;;;5093338;28;19904;-29
2022/11/17 13:30:52;;;;;;;;;;;10.30;99.90;;;;;;5093269;28;20359;-36
2022/11/17 13:33:20;;;;;;;;;;;10.30;99.90;;;;;;5093370;28;19911;-31
2022/11/17 13:35:45;;;;;;;;;;;10.30;99.90;;;;;;5093260;28;20363;-32
2022/11/17 13:38:11;;;;;;;;;;;10.40;99.90;;;;;;5093285;28;19911;-32
2022/11/17 13:40:37;;;;;;;;;;;10.50;99.90;;;;;;5093255;28;19904;-33
2022/11/17 13:43:03;;;;;;;;;;;10.40;99.90;;;;;;5093281;28;20368;-31
2022/11/17 13:45:29;;;;;;;;;;;10.40;99.90;;;;;;5093282;28;19911;-32
2022/11/17 13:47:55;;;;;;;;;;;10.40;99.90;;;;;;5093154;28;19915;-30
2022/11/17 13:50:22;;;;;;;;;;;10.30;99.90;;;;;;5093147;28;19919;-31
2022/11/17 13:52:54;;;;;;;;;;;10.50;99.90;;;;;;5093386;28;19908;-31
2022/11/17 13:55:21;;;;;;;;;;;10.40;99.90;;;;;;5093358;28;19905;-34
2022/11/17 13:57:53;;;;;;;;;;;10.50;99.90;;;;;;5093088;28;19980;-30
2022/11/17 14:00:19;;;;;;;;;;;10.50;99.90;;;;;;5093087;28;19931;-29
2022/11/17 14:02:58;;;;;;;;;;;10.40;99.90;;;;;;5093057;28;19912;-32
2022/11/17 14:05:24;;;;;;;;;;;10.40;99.90;;;;;;5091737;28;19908;-31
2022/11/17 14:07:51;;;;;;;;;;;10.40;99.90;;;;;;5093251;28;20366;-49
2022/11/17 14:10:20;;;;;;;;;;;10.40;99.90;;;;;;5093140;28;20424;-33
2022/11/17 14:12:46;;;;;;;;;;;10.40;99.90;;;;;;5093144;28;19927;-39
2022/11/17 14:15:21;;;;;;;;;;;10.50;99.90;;;;;;5093003;28;20362;-29
2022/11/17 14:17:48;;;;;;;;;;;10.50;99.90;;;;;;5093206;28;19904;-33
2022/11/17 14:20:18;;;;;;;;;;;10.50;99.90;;;;;;5093187;28;20356;-33
2022/11/17 14:23:04;;;;;;;;;;;10.50;99.90;;;;;;5091557;28;19908;-30
2022/11/17 14:25:33;;;;;;;;;;;10.50;99.90;;;;;;5093064;28;19904;-29
2022/11/17 14:27:58;;;;;;;;;;;10.50;99.90;;;;;;5092836;28;19939;-28
2022/11/17 14:30:25;;;;;;;;;;;10.50;99.90;;;;;;5092720;28;19966;-30
2022/11/17 14:32:51;;;;;;;;;;;10.50;99.90;;;;;;5093068;28;20415;-31
2022/11/17 14:35:16;;;;;;;;;;;10.50;99.90;;;;;;5095449;28;20425;-29
2022/11/17 14:37:42;;;;;;;;;;;10.60;99.90;;;;;;5096441;28;19908;-29
2022/11/17 14:40:13;;;;;;;;;;;10.70;99.90;;;;;;5096369;28;20283;-30
2022/11/17 14:42:42;;;;;;;;;;;10.70;99.90;;;;;;5096347;28;19904;-32
2022/11/17 14:45:11;;;;;;;;;;;10.80;99.90;;;;;;5096378;28;19983;-29
2022/11/17 14:47:36;;;;;;;;;;;10.80;99.90;;;;;;5096547;28;19942;-29
2022/11/17 14:50:02;;;;;;;;;;;10.80;99.90;;;;;;5096129;28;20368;-33
2022/11/17 14:52:27;;;;;;;;;;;10.90;99.90;;;;;;5096366;28;19904;-30
2022/11/17 14:54:53;;;;;;;;;;;10.90;99.90;;;;;;5096096;28;19915;-33
2022/11/17 14:57:18;;;;;;;;;;;10.80;99.90;;;;;;5095948;28;19919;-30
2022/11/17 14:59:44;;;;;;;;;;;10.80;99.90;;;;;;5096004;28;19998;-30
2022/11/17 15:02:10;;;;;;;;;;;10.90;99.90;;;;;;5095963;28;20276;-31
2022/11/17 15:04:37;;;;;;;;;;;10.90;99.90;;;;;;5095885;28;19965;-36
2022/11/17 15:07:02;;;;;;;;;;;11.00;99.90;;;;;;5095842;28;19904;-32
2022/11/17 15:09:28;;;;;;;;;;;11.00;99.90;;;;;;5094423;28;20276;-33
2022/11/17 15:11:53;;;;;;;;;;;10.90;99.90;;;;;;5095725;28;19912;-31
2022/11/17 15:14:19;;;;;;;;;;;10.90;99.90;;;;;;5096003;28;20330;-32
2022/11/17 15:16:44;;;;;;;;;;;10.90;99.90;;;;;;5095735;28;19911;-30